createdAt,value
2022-11-06T00:01:30.604Z,74.69
2022-11-06T00:03:59.205Z,74.68
2022-11-06T00:06:37.552Z,74.63
2022-11-06T00:09:07.260Z,74.79
2022-11-06T00:11:36.921Z,74.71
2022-11-06T00:14:05.860Z,74.66
2022-11-06T00:16:34.049Z,74.89
2022-11-06T00:19:02.548Z,74.94
2022-11-06T00:21:31.825Z,74.82
2022-11-06T00:24:00.536Z,74.88
2022-11-06T00:26:29.259Z,74.91
2022-11-06T00:28:59.110Z,75.12
2022-11-06T00:31:29.042Z,74.97
2022-11-06T00:33:58.901Z,75.01
2022-11-06T00:36:28.199Z,75.14
2022-11-06T00:38:56.781Z,75.08
2022-11-06T00:41:25.189Z,74.97
2022-11-06T00:43:54.236Z,74.72
2022-11-06T00:46:24.272Z,74.89
2022-11-06T00:48:53.516Z,74.80
2022-11-06T00:51:23.151Z,75.06
2022-11-06T00:53:55.352Z,74.87
2022-11-06T00:56:23.664Z,74.99
2022-11-06T00:58:51.893Z,75.01
2022-11-06T01:01:21.502Z,74.80
2022-11-06T01:03:53.290Z,74.78
2022-11-06T01:06:22.360Z,74.85
2022-11-06T01:08:50.682Z,74.87
2022-11-06T01:11:20.756Z,74.57
2022-11-06T01:13:50.790Z,74.72
2022-11-06T01:16:19.705Z,74.83
2022-11-06T01:18:48.164Z,74.53
2022-11-06T01:21:19.663Z,74.67
2022-11-06T01:23:48.934Z,74.80
2022-11-06T01:26:28.995Z,74.41
2022-11-06T01:29:06.641Z,74.60
2022-11-06T01:31:35.989Z,74.75
2022-11-06T01:34:05.331Z,74.52
2022-11-06T01:36:35.160Z,74.72
2022-11-06T01:39:04.703Z,74.68
2022-11-06T01:41:34.101Z,74.55
2022-11-06T01:44:06.117Z,74.60
2022-11-06T01:46:38.172Z,74.38
2022-11-06T01:49:09.729Z,74.76
2022-11-06T01:51:41.406Z,74.38
2022-11-06T01:54:10.331Z,74.40
2022-11-06T01:56:39.319Z,74.39
2022-11-06T01:59:09.083Z,74.25
2022-11-06T02:01:37.577Z,73.95
2022-11-06T02:04:12.829Z,74.29
2022-11-06T02:06:42.531Z,73.98
2022-11-06T02:09:12.523Z,73.83
2022-11-06T02:11:42.400Z,74.04
2022-11-06T02:14:15.831Z,73.67
2022-11-06T02:16:48.580Z,73.89
2022-11-06T02:19:25.758Z,73.77
2022-11-06T02:22:12.351Z,74.07
2022-11-06T02:24:49.306Z,74.16
2022-11-06T02:27:19.762Z,73.63
2022-11-06T02:29:51.465Z,73.94
2022-11-06T02:32:22.592Z,73.96
2022-11-06T02:34:53.217Z,73.77
2022-11-06T02:37:25.067Z,73.82
2022-11-06T02:39:54.461Z,73.92
2022-11-06T02:42:25.571Z,73.62
2022-11-06T02:44:55.640Z,73.28
2022-11-06T02:47:26.472Z,73.57
2022-11-06T02:49:56.689Z,73.66
2022-11-06T02:52:29.662Z,73.90
2022-11-06T02:55:00.402Z,73.84
2022-11-06T02:57:35.899Z,73.70
2022-11-06T03:00:06.908Z,73.55
2022-11-06T03:02:41.045Z,73.57
2022-11-06T03:05:12.998Z,73.61
2022-11-06T03:07:45.209Z,73.77
2022-11-06T03:10:14.336Z,73.48
2022-11-06T03:12:51.418Z,73.80
2022-11-06T03:15:22.152Z,73.37
2022-11-06T03:17:54.071Z,73.54
2022-11-06T03:20:24.350Z,73.80
2022-11-06T03:22:57.853Z,73.84
2022-11-06T03:25:27.997Z,73.75
2022-11-06T03:28:02.444Z,73.80
2022-11-06T03:30:30.891Z,73.92
2022-11-06T03:33:02.501Z,74.04
2022-11-06T03:35:34.730Z,73.75
2022-11-06T03:38:06.832Z,73.54
2022-11-06T03:40:38.044Z,73.76
2022-11-06T03:43:09.852Z,73.91
2022-11-06T03:45:42.054Z,73.51
2022-11-06T03:48:12.560Z,73.64
2022-11-06T03:50:44.503Z,73.82
2022-11-06T03:53:16.074Z,73.60
2022-11-06T03:55:47.890Z,73.81
2022-11-06T03:58:21.057Z,73.78
2022-11-06T04:00:50.753Z,73.74
2022-11-06T04:03:22.422Z,73.71
2022-11-06T04:05:53.470Z,73.64
2022-11-06T04:08:32.154Z,73.78
2022-11-06T04:11:13.043Z,73.37
2022-11-06T04:13:53.783Z,73.50
2022-11-06T04:16:22.501Z,73.21
2022-11-06T04:18:50.930Z,73.37
2022-11-06T04:21:26.648Z,73.20
2022-11-06T04:24:15.744Z,73.30
2022-11-06T04:26:49.248Z,73.17
2022-11-06T04:29:26.273Z,73.23
2022-11-06T04:32:00.252Z,72.94
2022-11-06T04:34:33.993Z,72.52
2022-11-06T04:37:08.064Z,72.55
2022-11-06T04:39:42.758Z,72.34
2022-11-06T04:42:17.606Z,72.56
2022-11-06T04:44:49.767Z,72.51
2022-11-06T04:47:19.569Z,72.09
2022-11-06T04:49:49.961Z,72.05
2022-11-06T04:52:20.856Z,71.95
2022-11-06T04:54:49.604Z,71.84
2022-11-06T04:57:17.806Z,71.81
2022-11-06T04:59:47.932Z,71.92
2022-11-06T05:02:16.300Z,71.66
2022-11-06T05:04:45.670Z,71.82
2022-11-06T05:07:14.507Z,71.98
2022-11-06T05:09:42.927Z,72.23
2022-11-06T05:12:11.061Z,72.06
2022-11-06T05:14:39.356Z,72.18
2022-11-06T05:17:09.092Z,72.19
2022-11-06T05:19:37.306Z,72.08
2022-11-06T05:22:15.465Z,71.93
2022-11-06T05:24:43.860Z,71.79
2022-11-06T05:27:12.197Z,71.76
2022-11-06T05:29:40.524Z,71.79
2022-11-06T05:32:10.166Z,71.57
2022-11-06T05:34:38.626Z,71.66
2022-11-06T05:37:07.055Z,71.73
2022-11-06T05:39:40.522Z,71.78
2022-11-06T05:42:10.109Z,71.73
2022-11-06T05:44:38.648Z,71.59
2022-11-06T05:47:06.962Z,71.55
2022-11-06T05:49:36.586Z,71.59
2022-11-06T05:52:05.076Z,71.70
2022-11-06T05:54:33.223Z,71.74
2022-11-06T05:57:01.553Z,71.21
2022-11-06T05:59:29.827Z,71.63
2022-11-06T06:01:58.930Z,71.85
2022-11-06T06:04:27.236Z,71.41
2022-11-06T06:06:57.087Z,71.65
2022-11-06T06:09:25.374Z,71.69
2022-11-06T06:11:54.021Z,71.83
2022-11-06T06:14:22.528Z,71.77
2022-11-06T06:16:51.534Z,71.65
2022-11-06T06:19:20.417Z,71.55
2022-11-06T06:21:48.645Z,71.30
2022-11-06T06:24:18.526Z,71.56
2022-11-06T06:26:47.124Z,71.10
2022-11-06T06:29:15.535Z,71.77
2022-11-06T06:31:45.462Z,71.54
2022-11-06T06:34:14.638Z,71.46
2022-11-06T06:36:42.990Z,71.47
2022-11-06T06:39:11.571Z,71.44
2022-11-06T06:41:41.930Z,71.17
2022-11-06T06:44:10.344Z,71.47
2022-11-06T06:46:38.705Z,71.52
2022-11-06T06:49:06.922Z,71.64
2022-11-06T06:51:35.179Z,71.29
2022-11-06T06:54:03.275Z,71.39
2022-11-06T06:56:31.516Z,71.56
2022-11-06T06:59:01.225Z,70.95
2022-11-06T07:01:29.458Z,71.20
2022-11-06T07:04:03.717Z,71.15
2022-11-06T07:06:32.645Z,71.18
2022-11-06T07:09:00.797Z,70.87
2022-11-06T07:11:29.051Z,71.04
2022-11-06T07:13:57.602Z,70.82
2022-11-06T07:16:27.660Z,71.25
2022-11-06T07:18:56.280Z,70.83
2022-11-06T07:21:24.465Z,71.31
2022-11-06T07:23:52.660Z,70.72
2022-11-06T07:26:20.815Z,71.12
2022-11-06T07:28:49.050Z,70.61
2022-11-06T07:31:17.194Z,70.88
2022-11-06T07:33:48.395Z,70.50
2022-11-06T07:36:16.697Z,70.75
2022-11-06T07:38:45.203Z,70.73
2022-11-06T07:41:14.641Z,70.86
2022-11-06T07:43:42.895Z,70.66
2022-11-06T07:46:11.675Z,70.51
2022-11-06T07:48:40.145Z,70.41
2022-11-06T07:51:10.996Z,70.63
2022-11-06T07:53:39.494Z,70.75
2022-11-06T07:56:08.814Z,70.57
2022-11-06T07:58:37.075Z,70.59
2022-11-06T08:01:05.357Z,70.76
2022-11-06T08:03:34.765Z,70.65
2022-11-06T08:06:05.304Z,70.64
2022-11-06T08:08:34.926Z,70.83
2022-11-06T08:11:03.484Z,70.75
2022-11-06T08:13:34.079Z,70.50
2022-11-06T08:16:05.043Z,70.54
2022-11-06T08:18:33.267Z,70.76
2022-11-06T08:21:01.796Z,70.52
2022-11-06T08:23:30.139Z,70.44
2022-11-06T08:26:00.768Z,70.27
2022-11-06T08:28:30.097Z,70.38
2022-11-06T08:30:58.268Z,70.31
2022-11-06T08:33:27.035Z,70.35
2022-11-06T08:35:55.352Z,69.99
2022-11-06T08:38:23.533Z,69.91
2022-11-06T08:40:53.759Z,69.95
2022-11-06T08:43:26.950Z,69.91
2022-11-06T08:45:55.182Z,69.82
2022-11-06T08:48:23.436Z,69.79
2022-11-06T08:50:51.889Z,69.70
2022-11-06T08:53:20.247Z,69.43
2022-11-06T08:55:48.486Z,69.60
2022-11-06T08:58:16.657Z,69.29
2022-11-06T09:00:46.310Z,69.30
2022-11-06T09:03:15.613Z,69.28
2022-11-06T09:05:44.916Z,69.28
2022-11-06T09:08:13.198Z,69.36
2022-11-06T09:10:42.558Z,69.62
2022-11-06T09:13:11.455Z,69.54
2022-11-06T09:15:39.958Z,69.41
2022-11-06T09:18:09.755Z,69.60
2022-11-06T09:20:37.985Z,69.39
2022-11-06T09:23:08.073Z,69.17
2022-11-06T09:25:36.257Z,69.02
2022-11-06T09:28:04.589Z,69.04
2022-11-06T09:30:33.519Z,69.20
2022-11-06T09:33:03.072Z,68.94
2022-11-06T09:35:33.735Z,68.70
2022-11-06T09:38:02.598Z,68.61
2022-11-06T09:40:32.884Z,68.74
2022-11-06T09:43:09.342Z,68.29
2022-11-06T09:45:39.468Z,68.44
2022-11-06T09:48:12.671Z,68.59
2022-11-06T09:50:48.494Z,68.07
2022-11-06T09:53:21.365Z,67.66
2022-11-06T09:55:50.663Z,67.51
2022-11-06T09:58:21.878Z,67.37
2022-11-06T10:00:53.041Z,67.32
2022-11-06T10:03:26.892Z,67.32
2022-11-06T10:05:56.602Z,67.41
2022-11-06T10:08:27.418Z,67.11
2022-11-06T10:11:00.902Z,67.00
2022-11-06T10:13:38.930Z,66.68
2022-11-06T10:16:12.474Z,66.55
2022-11-06T10:18:46.303Z,66.36
2022-11-06T10:21:20.026Z,66.49
2022-11-06T10:23:50.932Z,66.03
2022-11-06T10:26:20.130Z,66.09
2022-11-06T10:28:58.291Z,66.13
2022-11-06T10:31:32.361Z,66.00
2022-11-06T10:34:03.890Z,66.10
2022-11-06T10:36:38.783Z,65.85
2022-11-06T10:39:13.463Z,66.08
2022-11-06T10:41:41.842Z,65.70
2022-11-06T10:44:17.010Z,65.73
2022-11-06T10:46:48.052Z,65.51
2022-11-06T10:49:22.125Z,65.26
2022-11-06T10:52:07.595Z,65.54
2022-11-06T10:54:40.901Z,65.53
2022-11-06T10:57:17.017Z,65.83
2022-11-06T10:59:45.975Z,65.39
2022-11-06T11:02:22.697Z,65.38
2022-11-06T11:04:55.328Z,65.61
2022-11-06T11:07:27.845Z,65.69
2022-11-06T11:09:56.141Z,65.56
2022-11-06T11:12:25.581Z,65.91
2022-11-06T11:15:04.895Z,65.50
2022-11-06T11:17:33.103Z,65.38
2022-11-06T11:20:02.319Z,65.49
2022-11-06T11:22:35.548Z,65.70
2022-11-06T11:25:05.075Z,65.80
2022-11-06T11:27:34.355Z,65.60
2022-11-06T11:30:04.401Z,65.80
2022-11-06T11:32:32.995Z,65.65
2022-11-06T11:35:01.399Z,65.88
2022-11-06T11:37:31.867Z,65.89
2022-11-06T11:40:21.016Z,65.78
2022-11-06T11:42:49.519Z,65.85
2022-11-06T11:45:19.387Z,66.19
2022-11-06T11:47:49.728Z,66.04
2022-11-06T11:50:26.570Z,65.70
2022-11-06T11:52:58.727Z,65.75
2022-11-06T11:55:28.280Z,65.46
2022-11-06T11:57:57.369Z,65.68
2022-11-06T12:00:26.145Z,65.63
2022-11-06T12:02:56.488Z,66.01
2022-11-06T12:05:29.000Z,65.46
2022-11-06T12:08:00.237Z,65.62
2022-11-06T12:10:29.888Z,65.72
2022-11-06T12:12:59.030Z,66.26
2022-11-06T12:15:29.465Z,65.96
2022-11-06T12:18:00.889Z,65.70
2022-11-06T12:20:32.658Z,65.75
2022-11-06T12:23:03.479Z,66.00
2022-11-06T12:25:34.467Z,66.07
2022-11-06T12:28:04.128Z,66.02
2022-11-06T12:30:34.220Z,65.56
2022-11-06T12:33:05.795Z,65.76
2022-11-06T12:35:35.736Z,65.99
2022-11-06T12:38:08.781Z,66.24
2022-11-06T12:40:39.884Z,66.10
2022-11-06T12:43:14.526Z,66.52
2022-11-06T12:45:53.811Z,66.15
2022-11-06T12:48:29.695Z,66.15
2022-11-06T12:51:02.054Z,66.18
2022-11-06T12:53:38.593Z,66.08
2022-11-06T12:56:11.340Z,66.15
2022-11-06T12:58:50.979Z,65.88
2022-11-06T13:01:23.928Z,66.08
2022-11-06T13:04:06.629Z,65.88
2022-11-06T13:06:57.160Z,65.90
2022-11-06T13:09:31.954Z,66.04
2022-11-06T13:12:05.748Z,66.08
2022-11-06T13:14:38.766Z,65.75
2022-11-06T13:17:10.496Z,65.96
2022-11-06T13:19:44.818Z,65.77
2022-11-06T13:22:20.456Z,65.86
2022-11-06T13:24:53.797Z,65.87
2022-11-06T13:27:27.947Z,65.71
2022-11-06T13:29:58.731Z,65.65
2022-11-06T13:32:28.517Z,65.66
2022-11-06T13:34:58.439Z,65.18
2022-11-06T13:37:33.149Z,65.57
2022-11-06T13:40:06.774Z,65.39
2022-11-06T13:42:37.380Z,65.61
2022-11-06T13:45:08.385Z,65.51
2022-11-06T13:47:42.658Z,65.63
2022-11-06T13:50:15.890Z,65.86
2022-11-06T13:52:55.466Z,65.94
2022-11-06T13:55:27.799Z,65.84
2022-11-06T13:58:07.319Z,65.60
2022-11-06T14:00:41.099Z,65.67
2022-11-06T14:03:20.330Z,65.87
2022-11-06T14:05:51.847Z,65.72
2022-11-06T14:08:22.920Z,66.10
2022-11-06T14:10:58.687Z,66.17
2022-11-06T14:13:29.720Z,66.00
2022-11-06T14:16:03.182Z,66.35
2022-11-06T14:18:31.840Z,66.34
2022-11-06T14:21:14.878Z,66.20
2022-11-06T14:23:48.578Z,66.18
2022-11-06T14:26:38.018Z,66.32
2022-11-06T14:29:18.646Z,66.31
2022-11-06T14:31:57.898Z,66.51
2022-11-06T14:34:30.274Z,66.71
2022-11-06T14:37:21.788Z,66.79
2022-11-06T14:40:01.958Z,66.72
2022-11-06T14:42:32.500Z,67.22
2022-11-06T14:45:02.638Z,67.20
2022-11-06T14:47:33.693Z,67.28
2022-11-06T14:50:05.268Z,67.42
2022-11-06T14:52:42.088Z,67.83
2022-11-06T14:55:24.482Z,68.07
2022-11-06T14:57:55.522Z,68.34
2022-11-06T15:00:34.993Z,68.71
2022-11-06T15:03:04.611Z,69.02
2022-11-06T15:05:42.056Z,69.15
2022-11-06T15:08:10.964Z,68.99
2022-11-06T15:10:49.106Z,69.09
2022-11-06T15:13:31.470Z,69.24
2022-11-06T15:16:05.027Z,69.36
2022-11-06T15:18:37.297Z,69.46
2022-11-06T15:21:09.729Z,69.62
2022-11-06T15:23:42.260Z,70.32
2022-11-06T15:26:18.770Z,70.79
2022-11-06T15:28:51.823Z,71.36
2022-11-06T15:31:22.019Z,71.62
2022-11-06T15:33:59.280Z,71.92
2022-11-06T15:36:27.830Z,72.23
2022-11-06T15:38:56.088Z,72.65
2022-11-06T15:41:26.347Z,73.09
2022-11-06T15:43:57.493Z,73.34
2022-11-06T15:46:26.901Z,73.76
2022-11-06T15:49:07.551Z,74.16
2022-11-06T15:51:38.851Z,74.11
2022-11-06T15:54:07.339Z,74.61
2022-11-06T15:56:37.143Z,74.59
2022-11-06T15:59:08.870Z,74.71
2022-11-06T16:01:37.920Z,74.69
2022-11-06T16:04:13.088Z,75.02
2022-11-06T16:06:44.459Z,75.42
2022-11-06T16:09:17.306Z,75.54
2022-11-06T16:11:47.051Z,75.72
2022-11-06T16:14:16.923Z,75.88
2022-11-06T16:16:47.520Z,76.06
2022-11-06T16:19:23.105Z,75.96
2022-11-06T16:21:54.246Z,75.77
2022-11-06T16:24:22.633Z,76.30
2022-11-06T16:26:51.244Z,76.52
2022-11-06T16:29:22.636Z,76.64
2022-11-06T16:32:00.832Z,76.84
2022-11-06T16:34:37.863Z,77.12
2022-11-06T16:37:07.371Z,76.99
2022-11-06T16:39:49.115Z,77.24
2022-11-06T16:42:26.071Z,77.20
2022-11-06T16:45:02.691Z,77.23
2022-11-06T16:47:31.989Z,77.48
2022-11-06T16:50:02.406Z,77.44
2022-11-06T16:52:32.171Z,77.27
2022-11-06T16:55:02.390Z,77.37
2022-11-06T16:57:32.390Z,77.17
2022-11-06T17:00:04.479Z,77.44
2022-11-06T17:02:34.793Z,77.62
2022-11-06T17:05:11.424Z,77.73
2022-11-06T17:07:40.370Z,78.00
2022-11-06T17:10:18.383Z,77.81
2022-11-06T17:12:46.703Z,77.83
2022-11-06T17:15:16.420Z,77.75
2022-11-06T17:17:44.681Z,77.78
2022-11-06T17:20:15.303Z,78.07
2022-11-06T17:22:43.540Z,78.21
2022-11-06T17:25:11.880Z,78.22
2022-11-06T17:27:41.099Z,78.52
2022-11-06T17:30:14.117Z,78.25
2022-11-06T17:32:44.083Z,78.37
2022-11-06T17:35:12.302Z,78.30
2022-11-06T17:37:40.569Z,78.50
2022-11-06T17:40:09.612Z,78.68
2022-11-06T17:42:37.920Z,78.86
2022-11-06T17:45:06.664Z,79.19
2022-11-06T17:47:34.888Z,79.63
2022-11-06T17:50:05.123Z,79.49
2022-11-06T17:52:33.334Z,79.51
2022-11-06T17:55:01.862Z,79.46
2022-11-06T17:57:30.190Z,79.38
2022-11-06T17:59:58.500Z,79.21
2022-11-06T18:02:48.052Z,79.25
2022-11-06T18:05:16.920Z,79.11
2022-11-06T18:07:45.659Z,79.55
2022-11-06T18:10:14.002Z,79.43
2022-11-06T18:12:42.502Z,79.57
2022-11-06T18:15:10.943Z,79.56
2022-11-06T18:17:39.254Z,79.53
2022-11-06T18:20:08.072Z,79.69
2022-11-06T18:22:38.271Z,80.06
2022-11-06T18:25:06.911Z,79.93
2022-11-06T18:27:35.080Z,80.08
2022-11-06T18:30:03.518Z,79.91
2022-11-06T18:32:31.719Z,79.92
2022-11-06T18:35:01.397Z,79.77
2022-11-06T18:37:29.623Z,79.60
2022-11-06T18:39:59.580Z,79.54
2022-11-06T18:42:28.195Z,79.60
2022-11-06T18:44:56.655Z,79.66
2022-11-06T18:47:24.862Z,79.47
2022-11-06T18:49:53.172Z,79.69
2022-11-06T18:52:44.522Z,79.56
2022-11-06T18:55:11.742Z,79.65
2022-11-06T18:57:41.159Z,79.73
2022-11-06T19:00:10.999Z,79.88
2022-11-06T19:02:42.469Z,79.83
2022-11-06T19:05:10.943Z,79.66
2022-11-06T19:07:39.171Z,79.69
2022-11-06T19:10:09.133Z,79.69
2022-11-06T19:12:38.729Z,79.53
2022-11-06T19:15:07.648Z,79.36
2022-11-06T19:17:35.881Z,79.25
2022-11-06T19:20:04.481Z,79.08
2022-11-06T19:22:34.265Z,79.22
2022-11-06T19:25:02.633Z,79.27
2022-11-06T19:27:30.902Z,79.10
2022-11-06T19:30:00.744Z,79.17
2022-11-06T19:32:29.203Z,79.11
2022-11-06T19:34:57.483Z,79.31
2022-11-06T19:37:25.976Z,79.35
2022-11-06T19:39:54.561Z,79.35
2022-11-06T19:42:22.885Z,79.27
2022-11-06T19:44:51.910Z,79.30
2022-11-06T19:47:21.682Z,79.48
2022-11-06T19:49:50.228Z,79.71
2022-11-06T19:52:41.898Z,79.61
2022-11-06T19:55:26.091Z,79.70
2022-11-06T19:57:55.842Z,79.85
2022-11-06T20:00:24.142Z,79.93
2022-11-06T20:02:53.861Z,79.98
2022-11-06T20:05:22.230Z,80.17
2022-11-06T20:07:50.912Z,80.22
2022-11-06T20:10:19.250Z,80.42
2022-11-06T20:12:47.543Z,80.36
2022-11-06T20:15:19.939Z,80.37
2022-11-06T20:17:51.252Z,80.74
2022-11-06T20:20:21.640Z,80.82
2022-11-06T20:22:50.332Z,80.89
2022-11-06T20:25:18.725Z,81.00
2022-11-06T20:27:50.362Z,81.14
2022-11-06T20:30:18.842Z,81.18
2022-11-06T20:32:47.243Z,81.25
2022-11-06T20:35:17.134Z,81.21
2022-11-06T20:37:47.258Z,81.25
2022-11-06T20:40:15.671Z,81.29
2022-11-06T20:42:43.912Z,81.29
2022-11-06T20:45:12.299Z,81.52
2022-11-06T20:47:40.418Z,81.47
2022-11-06T20:50:08.961Z,81.60
2022-11-06T20:52:37.481Z,81.48
2022-11-06T20:55:08.362Z,81.38
2022-11-06T20:57:36.683Z,81.71
2022-11-06T21:00:06.514Z,81.75
2022-11-06T21:02:35.364Z,81.66
2022-11-06T21:05:03.823Z,81.94
2022-11-06T21:07:32.130Z,81.68
2022-11-06T21:10:00.530Z,81.92
2022-11-06T21:12:30.373Z,81.92
2022-11-06T21:14:58.622Z,81.72
2022-11-06T21:17:26.908Z,81.93
2022-11-06T21:19:55.200Z,81.88
2022-11-06T21:22:23.634Z,81.65
2022-11-06T21:24:51.882Z,82.00
2022-11-06T21:27:20.253Z,81.85
2022-11-06T21:29:49.923Z,81.83
2022-11-06T21:32:18.295Z,82.10
2022-11-06T21:34:46.572Z,82.19
2022-11-06T21:37:14.926Z,82.20
2022-11-06T21:39:43.238Z,82.58
2022-11-06T21:42:11.672Z,82.48
2022-11-06T21:44:40.026Z,82.60
2022-11-06T21:47:09.911Z,82.58
2022-11-06T21:49:38.614Z,82.83
2022-11-06T21:52:25.074Z,82.91
2022-11-06T21:55:06.471Z,82.87
2022-11-06T21:57:34.845Z,82.98
2022-11-06T22:00:02.995Z,82.98
2022-11-06T22:02:41.849Z,82.92
2022-11-06T22:05:10.533Z,83.20
2022-11-06T22:07:38.783Z,83.09
2022-11-06T22:10:07.982Z,83.41
2022-11-06T22:12:36.770Z,83.33
2022-11-06T22:15:05.782Z,83.40
2022-11-06T22:17:34.133Z,83.51
2022-11-06T22:20:04.980Z,83.62
2022-11-06T22:22:34.443Z,83.58
2022-11-06T22:25:02.732Z,83.78
2022-11-06T22:27:31.245Z,83.84
2022-11-06T22:29:59.834Z,83.97
2022-11-06T22:32:28.271Z,83.77
2022-11-06T22:34:56.575Z,84.04
2022-11-06T22:37:26.443Z,84.01
2022-11-06T22:39:55.174Z,84.09
2022-11-06T22:42:23.541Z,84.15
2022-11-06T22:44:52.096Z,84.16
2022-11-06T22:47:20.502Z,84.27
2022-11-06T22:49:48.759Z,84.11
2022-11-06T22:52:17.731Z,84.38
2022-11-06T22:54:47.372Z,84.34
2022-11-06T22:57:15.751Z,84.41
2022-11-06T22:59:44.023Z,84.32
2022-11-06T23:02:12.402Z,84.33
2022-11-06T23:04:40.815Z,84.39
2022-11-06T23:07:09.194Z,84.30
2022-11-06T23:09:37.454Z,84.30
2022-11-06T23:12:07.831Z,84.36
2022-11-06T23:14:36.291Z,84.54
2022-11-06T23:17:04.574Z,84.09
2022-11-06T23:19:33.155Z,84.03
2022-11-06T23:22:11.435Z,84.40
2022-11-06T23:24:39.933Z,84.05
2022-11-06T23:27:09.862Z,84.17
2022-11-06T23:29:38.414Z,84.17
2022-11-06T23:32:07.296Z,84.16
2022-11-06T23:34:36.269Z,84.41
2022-11-06T23:37:04.955Z,84.41
2022-11-06T23:39:33.265Z,84.45
2022-11-06T23:42:01.702Z,84.60
2022-11-06T23:44:41.243Z,84.80
2022-11-06T23:47:09.595Z,84.80
2022-11-06T23:49:37.926Z,84.79
2022-11-06T23:52:07.664Z,84.95
2022-11-06T23:54:36.029Z,84.92
2022-11-06T23:57:04.330Z,85.16
2022-11-06T23:59:34.475Z,85.34
